createdAt,value
2022-08-25T00:01:53.758Z,7.00
2022-08-25T00:04:23.010Z,10.63
2022-08-25T00:06:51.158Z,8.77
2022-08-25T00:09:23.582Z,7.93
2022-08-25T00:11:51.927Z,9.70
2022-08-25T00:14:23.514Z,9.15
2022-08-25T00:16:51.646Z,12.48
2022-08-25T00:19:27.426Z,9.30
2022-08-25T00:21:56.283Z,12.40
2022-08-25T00:24:26.601Z,11.73
2022-08-25T00:26:57.406Z,11.40
2022-08-25T00:29:26.778Z,9.23
2022-08-25T00:31:55.394Z,9.30
2022-08-25T00:34:26.562Z,10.57
2022-08-25T00:36:54.966Z,10.40
2022-08-25T00:39:25.546Z,7.32
2022-08-25T00:41:56.597Z,7.70
2022-08-25T00:44:26.197Z,10.35
2022-08-25T00:46:56.777Z,11.90
2022-08-25T00:49:28.614Z,12.70
2022-08-25T00:52:01.206Z,16.75
2022-08-25T00:54:34.880Z,10.20
2022-08-25T00:57:04.069Z,12.98
2022-08-25T00:59:32.348Z,9.93
2022-08-25T01:02:02.502Z,14.00
2022-08-25T01:04:30.761Z,12.93
2022-08-25T01:06:59.960Z,15.50
2022-08-25T01:09:31.296Z,10.48
2022-08-25T01:11:59.996Z,12.90
2022-08-25T01:14:31.441Z,10.45
2022-08-25T01:17:00.268Z,11.65
2022-08-25T01:19:29.985Z,11.65
2022-08-25T01:21:59.720Z,10.02
2022-08-25T01:24:33.682Z,16.33
2022-08-25T01:27:01.757Z,9.57
2022-08-25T01:29:31.167Z,9.43
2022-08-25T01:32:00.904Z,10.98
2022-08-25T01:34:31.031Z,8.50
2022-08-25T01:37:01.931Z,7.88
2022-08-25T01:39:34.005Z,10.60
2022-08-25T01:42:18.811Z,11.25
2022-08-25T01:44:48.593Z,8.35
2022-08-25T01:47:17.324Z,10.75
2022-08-25T01:49:45.424Z,13.05
2022-08-25T01:52:20.332Z,12.43
2022-08-25T01:54:49.656Z,12.60
2022-08-25T01:57:18.063Z,13.00
2022-08-25T01:59:46.432Z,10.65
2022-08-25T02:02:14.458Z,15.55
2022-08-25T02:04:44.263Z,12.95
2022-08-25T02:07:14.203Z,14.85
2022-08-25T02:09:42.214Z,15.88
2022-08-25T02:12:10.319Z,11.05
2022-08-25T02:14:38.896Z,11.57
2022-08-25T02:17:07.818Z,12.45
2022-08-25T02:19:35.916Z,12.50
2022-08-25T02:22:04.846Z,14.40
2022-08-25T02:24:34.963Z,11.00
2022-08-25T02:27:04.077Z,13.75
2022-08-25T02:29:32.277Z,14.65
2022-08-25T02:32:00.572Z,12.43
2022-08-25T02:34:28.558Z,12.00
2022-08-25T02:36:56.560Z,12.50
2022-08-25T02:39:24.735Z,8.57
2022-08-25T02:41:54.251Z,10.50
2022-08-25T02:44:22.291Z,7.82
2022-08-25T02:46:50.262Z,9.10
2022-08-25T02:49:18.691Z,10.95
2022-08-25T02:51:46.650Z,10.07
2022-08-25T02:54:14.954Z,7.57
2022-08-25T02:56:43.458Z,12.88
2022-08-25T02:59:13.666Z,8.30
2022-08-25T03:01:41.809Z,9.27
2022-08-25T03:04:09.878Z,6.82
2022-08-25T03:06:38.030Z,7.93
2022-08-25T03:09:06.505Z,7.80
2022-08-25T03:11:34.489Z,7.50
2022-08-25T03:14:02.610Z,10.95
2022-08-25T03:16:32.398Z,8.65
2022-08-25T03:19:01.566Z,12.85
2022-08-25T03:21:32.795Z,9.73
2022-08-25T03:24:01.771Z,9.52
2022-08-25T03:26:47.470Z,12.35
2022-08-25T03:29:15.412Z,10.70
2022-08-25T03:31:45.350Z,9.35
2022-08-25T03:34:13.982Z,11.95
2022-08-25T03:36:41.986Z,14.35
2022-08-25T03:39:10.518Z,11.55
2022-08-25T03:41:38.545Z,10.63
2022-08-25T03:44:09.136Z,10.65
2022-08-25T03:46:40.895Z,12.60
2022-08-25T03:49:12.246Z,11.20
2022-08-25T03:51:42.598Z,7.88
2022-08-25T03:54:11.854Z,9.40
2022-08-25T03:56:40.018Z,15.45
2022-08-25T03:59:10.264Z,13.75
2022-08-25T04:01:38.880Z,7.40
2022-08-25T04:04:08.125Z,14.18
2022-08-25T04:06:37.559Z,12.75
2022-08-25T04:09:05.657Z,11.60
2022-08-25T04:11:33.805Z,8.83
2022-08-25T04:14:02.660Z,12.60
2022-08-25T04:16:33.072Z,12.63
2022-08-25T04:19:03.333Z,13.98
2022-08-25T04:21:31.801Z,14.32
2022-08-25T04:24:01.220Z,12.43
2022-08-25T04:26:32.216Z,10.18
2022-08-25T04:29:01.835Z,10.40
2022-08-25T04:31:31.117Z,12.93
2022-08-25T04:33:59.644Z,13.60
2022-08-25T04:36:27.688Z,11.32
2022-08-25T04:38:55.797Z,13.55
2022-08-25T04:41:25.528Z,10.75
2022-08-25T04:43:54.881Z,10.00
2022-08-25T04:46:25.796Z,9.95
2022-08-25T04:48:55.456Z,11.88
2022-08-25T04:51:25.772Z,13.63
2022-08-25T04:53:54.328Z,10.65
2022-08-25T04:56:26.159Z,10.02
2022-08-25T04:58:55.427Z,8.75
2022-08-25T05:01:26.137Z,9.90
2022-08-25T05:03:56.693Z,9.70
2022-08-25T05:06:24.996Z,6.78
2022-08-25T05:08:53.712Z,10.68
2022-08-25T05:11:21.892Z,12.57
2022-08-25T05:13:55.480Z,11.57
2022-08-25T05:16:25.443Z,9.82
2022-08-25T05:18:54.380Z,8.43
2022-08-25T05:21:24.190Z,12.88
2022-08-25T05:23:56.657Z,8.68
2022-08-25T05:26:26.253Z,12.63
2022-08-25T05:28:56.487Z,10.13
2022-08-25T05:31:26.819Z,12.45
2022-08-25T05:33:55.731Z,12.98
2022-08-25T05:36:24.560Z,12.38
2022-08-25T05:38:52.575Z,10.02
2022-08-25T05:41:22.097Z,12.52
2022-08-25T05:43:50.739Z,9.25
2022-08-25T05:46:21.285Z,10.05
2022-08-25T05:48:50.068Z,7.65
2022-08-25T05:51:19.835Z,11.27
2022-08-25T05:53:49.696Z,12.20
2022-08-25T05:56:18.432Z,10.60
2022-08-25T05:58:47.188Z,13.63
2022-08-25T06:01:45.636Z,10.13
2022-08-25T06:04:13.639Z,7.50
2022-08-25T06:06:42.300Z,15.35
2022-08-25T06:09:11.000Z,11.60
2022-08-25T06:11:40.518Z,11.05
2022-08-25T06:14:08.672Z,11.00
2022-08-25T06:16:38.809Z,11.52
2022-08-25T06:19:08.143Z,9.35
2022-08-25T06:21:39.036Z,12.20
2022-08-25T06:24:10.034Z,10.82
2022-08-25T06:26:41.611Z,13.00
2022-08-25T06:29:09.624Z,10.77
2022-08-25T06:31:39.106Z,13.43
2022-08-25T06:34:07.524Z,11.38
2022-08-25T06:36:35.638Z,7.95
2022-08-25T06:39:03.939Z,10.13
2022-08-25T06:41:36.922Z,13.45
2022-08-25T06:44:05.982Z,9.10
2022-08-25T06:46:36.558Z,11.15
2022-08-25T06:49:07.240Z,13.70
2022-08-25T06:51:36.796Z,11.73
2022-08-25T06:54:06.272Z,14.38
2022-08-25T06:56:34.612Z,6.30
2022-08-25T06:59:03.352Z,10.57
2022-08-25T07:01:32.173Z,9.32
2022-08-25T07:04:01.802Z,10.07
2022-08-25T07:06:35.343Z,14.98
2022-08-25T07:09:05.115Z,8.60
2022-08-25T07:11:35.444Z,8.20
2022-08-25T07:14:04.731Z,9.43
2022-08-25T07:16:33.872Z,9.90
2022-08-25T07:19:02.753Z,8.50
2022-08-25T07:21:35.619Z,10.07
2022-08-25T07:24:06.526Z,8.07
2022-08-25T07:26:38.511Z,10.27
2022-08-25T07:29:10.588Z,9.30
2022-08-25T07:31:39.295Z,7.90
2022-08-25T07:34:25.624Z,7.93
2022-08-25T07:36:56.164Z,12.23
2022-08-25T07:39:25.073Z,9.35
2022-08-25T07:41:53.736Z,9.10
2022-08-25T07:44:22.637Z,8.25
2022-08-25T07:46:51.251Z,12.75
2022-08-25T07:49:23.269Z,8.98
2022-08-25T07:52:05.089Z,7.60
2022-08-25T07:54:37.931Z,10.07
2022-08-25T07:57:08.411Z,12.10
2022-08-25T07:59:39.452Z,6.90
2022-08-25T08:02:09.263Z,9.93
2022-08-25T08:04:48.837Z,8.30
2022-08-25T08:07:18.559Z,8.98
2022-08-25T08:09:56.210Z,7.38
2022-08-25T08:12:34.781Z,6.07
2022-08-25T08:15:04.555Z,9.23
2022-08-25T08:17:39.774Z,9.23
2022-08-25T08:20:09.785Z,10.73
2022-08-25T08:22:40.967Z,14.20
2022-08-25T08:25:13.687Z,13.07
2022-08-25T08:27:47.171Z,12.60
2022-08-25T08:30:16.042Z,11.48
2022-08-25T08:33:08.611Z,9.48
2022-08-25T08:35:32.254Z,12.63
2022-08-25T08:38:00.298Z,5.70
2022-08-25T08:40:32.248Z,9.88
2022-08-25T08:43:07.092Z,9.43
2022-08-25T08:45:50.974Z,11.35
2022-08-25T08:48:34.063Z,8.50
2022-08-25T08:51:15.681Z,12.18
2022-08-25T08:53:49.665Z,8.98
2022-08-25T08:56:24.300Z,8.18
2022-08-25T08:59:05.784Z,9.30
2022-08-25T09:01:38.174Z,6.85
2022-08-25T09:04:12.002Z,6.22
2022-08-25T09:06:43.962Z,8.82
2022-08-25T09:09:15.920Z,9.73
2022-08-25T09:12:01.121Z,9.43
2022-08-25T09:14:53.975Z,8.75
2022-08-25T09:17:37.317Z,10.70
2022-08-25T09:20:30.559Z,4.45
2022-08-25T09:23:07.232Z,7.47
2022-08-25T09:25:54.018Z,9.25
2022-08-25T09:28:31.162Z,5.90
2022-08-25T09:31:01.828Z,5.00
2022-08-25T09:33:33.681Z,8.50
2022-08-25T09:36:08.969Z,7.93
2022-08-25T09:38:37.522Z,10.15
2022-08-25T09:41:07.606Z,7.82
2022-08-25T09:43:39.123Z,7.88
2022-08-25T09:46:14.006Z,9.02
2022-08-25T09:48:48.467Z,8.68
2022-08-25T09:51:28.435Z,6.50
2022-08-25T09:54:00.010Z,9.52
2022-08-25T09:56:31.838Z,7.75
2022-08-25T09:59:21.486Z,7.97
2022-08-25T10:02:05.920Z,9.60
2022-08-25T10:04:36.948Z,7.75
2022-08-25T10:07:19.783Z,8.20
2022-08-25T10:09:55.040Z,10.30
2022-08-25T10:12:31.068Z,6.35
2022-08-25T10:15:00.444Z,6.53
2022-08-25T10:17:30.244Z,6.95
2022-08-25T10:20:19.901Z,7.60
2022-08-25T10:22:50.422Z,7.35
2022-08-25T10:25:27.966Z,5.88
2022-08-25T10:28:11.945Z,5.82
2022-08-25T10:30:57.002Z,5.78
2022-08-25T10:33:36.247Z,10.98
2022-08-25T10:36:09.062Z,6.45
2022-08-25T10:38:43.161Z,7.60
2022-08-25T10:41:33.000Z,10.98
2022-08-25T10:44:32.548Z,6.40
2022-08-25T10:47:28.405Z,5.50
2022-08-25T10:50:03.169Z,7.20
2022-08-25T10:52:40.034Z,12.75
2022-08-25T10:55:18.737Z,8.00
2022-08-25T10:57:56.218Z,9.50
2022-08-25T11:00:31.486Z,6.10
2022-08-25T11:03:19.313Z,7.68
2022-08-25T11:05:52.110Z,4.47
2022-08-25T11:08:27.795Z,6.90
2022-08-25T11:11:03.516Z,5.32
2022-08-25T11:13:43.247Z,9.93
2022-08-25T11:16:18.563Z,6.78
2022-08-25T11:19:00.732Z,6.55
2022-08-25T11:21:36.709Z,6.22
2022-08-25T11:24:14.573Z,6.75
2022-08-25T11:26:47.866Z,7.63
2022-08-25T11:29:18.866Z,6.32
2022-08-25T11:31:53.642Z,7.38
2022-08-25T11:34:24.707Z,6.65
2022-08-25T11:36:56.232Z,8.80
2022-08-25T11:39:40.358Z,9.85
2022-08-25T11:42:22.023Z,7.40
2022-08-25T11:44:59.700Z,6.20
2022-08-25T11:48:00.569Z,9.30
2022-08-25T11:50:35.184Z,10.70
2022-08-25T11:53:26.776Z,4.18
2022-08-25T11:56:02.416Z,13.05
2022-08-25T11:58:46.305Z,9.73
2022-08-25T12:01:47.563Z,14.68
2022-08-25T12:04:32.668Z,9.60
2022-08-25T12:07:22.683Z,8.75
2022-08-25T12:10:20.759Z,8.50
2022-08-25T12:13:10.437Z,15.68
2022-08-25T12:16:01.250Z,7.97
2022-08-25T12:18:46.077Z,11.00
2022-08-25T12:21:33.694Z,7.72
2022-08-25T12:24:26.217Z,11.57
2022-08-25T12:26:59.226Z,10.77
2022-08-25T12:29:33.166Z,8.25
2022-08-25T12:32:31.407Z,5.53
2022-08-25T12:35:17.308Z,5.90
2022-08-25T12:38:00.523Z,4.82
2022-08-25T12:40:34.801Z,7.47
2022-08-25T12:43:07.647Z,4.53
2022-08-25T12:45:42.326Z,9.02
2022-08-25T12:48:59.102Z,10.43
2022-08-25T12:51:29.862Z,11.10
2022-08-25T12:54:12.533Z,6.80
2022-08-25T12:56:48.698Z,10.77
2022-08-25T12:59:19.886Z,9.00
2022-08-25T13:02:10.821Z,12.35
2022-08-25T13:05:06.498Z,8.95
2022-08-25T13:07:59.689Z,9.77
2022-08-25T13:10:43.132Z,7.68
2022-08-25T13:13:24.204Z,7.38
2022-08-25T13:16:00.681Z,8.77
2022-08-25T13:18:30.838Z,11.18
2022-08-25T13:21:07.702Z,5.32
2022-08-25T13:23:39.110Z,11.48
2022-08-25T13:26:07.559Z,7.78
2022-08-25T13:28:41.941Z,5.20
2022-08-25T13:31:16.838Z,6.43
2022-08-25T13:33:58.221Z,7.35
2022-08-25T13:36:51.954Z,7.30
2022-08-25T13:39:45.496Z,6.13
2022-08-25T13:42:15.756Z,8.73
2022-08-25T13:44:51.794Z,7.70
2022-08-25T13:47:34.179Z,6.75
2022-08-25T13:50:23.731Z,9.07
2022-08-25T13:52:57.931Z,6.13
2022-08-25T13:55:30.531Z,9.18
2022-08-25T13:58:12.798Z,11.45
2022-08-25T14:00:48.663Z,8.52
2022-08-25T14:03:31.702Z,7.68
2022-08-25T14:06:11.102Z,12.15
2022-08-25T14:08:41.672Z,11.40
2022-08-25T14:11:14.893Z,10.23
2022-08-25T14:13:45.026Z,16.63
2022-08-25T14:16:19.691Z,6.10
2022-08-25T14:18:51.901Z,9.15
2022-08-25T14:21:22.710Z,5.78
2022-08-25T14:23:50.889Z,10.23
2022-08-25T14:26:18.994Z,11.57
2022-08-25T14:28:48.614Z,5.85
2022-08-25T14:31:28.547Z,10.27
2022-08-25T14:34:00.521Z,10.57
2022-08-25T14:36:30.779Z,11.85
2022-08-25T14:38:59.339Z,8.07
2022-08-25T14:41:28.792Z,11.15
2022-08-25T14:43:56.829Z,14.35
2022-08-25T14:46:28.972Z,7.43
2022-08-25T14:48:59.638Z,9.07
2022-08-25T14:51:29.655Z,7.53
2022-08-25T14:54:02.528Z,7.90
2022-08-25T14:56:30.830Z,7.82
2022-08-25T14:58:59.834Z,14.45
2022-08-25T15:01:30.393Z,11.77
2022-08-25T15:04:04.013Z,10.18
2022-08-25T15:06:32.367Z,8.43
2022-08-25T15:09:10.943Z,9.07
2022-08-25T15:11:41.627Z,9.65
2022-08-25T15:14:10.980Z,9.32
2022-08-25T15:16:45.226Z,13.80
2022-08-25T15:19:16.198Z,8.73
2022-08-25T15:21:46.218Z,14.20
2022-08-25T15:24:17.725Z,14.40
2022-08-25T15:29:24.506Z,16.38
2022-08-25T15:31:54.547Z,10.13
2022-08-25T15:34:22.730Z,8.70
2022-08-25T15:36:51.106Z,6.35
2022-08-25T15:39:19.948Z,14.88
2022-08-25T15:41:52.142Z,17.58
2022-08-25T15:44:24.147Z,13.73
2022-08-25T15:46:56.361Z,7.35
2022-08-25T15:49:24.895Z,9.27
2022-08-25T15:51:54.321Z,13.75
2022-08-25T15:54:23.265Z,10.63
2022-08-25T15:56:51.777Z,10.60
2022-08-25T15:59:21.660Z,9.75
2022-08-25T16:01:53.436Z,8.60
2022-08-25T16:04:24.478Z,12.88
2022-08-25T16:06:53.135Z,10.95
2022-08-25T16:09:23.079Z,13.93
2022-08-25T16:11:56.119Z,12.90
2022-08-25T16:14:25.966Z,9.75
2022-08-25T16:16:58.438Z,10.73
2022-08-25T16:19:29.765Z,7.88
2022-08-25T16:21:58.926Z,15.10
2022-08-25T16:24:28.179Z,14.75
2022-08-25T16:27:11.136Z,10.18
2022-08-25T16:29:40.209Z,9.80
2022-08-25T16:32:09.450Z,15.25
2022-08-25T16:34:39.725Z,7.22
2022-08-25T16:37:08.617Z,11.60
2022-08-25T16:39:39.863Z,8.15
2022-08-25T16:42:08.241Z,10.45
2022-08-25T16:44:37.422Z,10.07
2022-08-25T16:47:06.589Z,9.55
2022-08-25T16:49:38.674Z,13.30
2022-08-25T16:52:28.455Z,8.68
2022-08-25T16:55:15.921Z,15.63
2022-08-25T16:57:47.565Z,10.60
2022-08-25T17:00:19.498Z,8.68
2022-08-25T17:02:47.710Z,11.13
2022-08-25T17:05:19.418Z,13.75
2022-08-25T17:08:08.692Z,9.43
2022-08-25T17:10:39.647Z,10.18
2022-08-25T17:13:08.070Z,12.35
2022-08-25T17:15:39.990Z,14.20
2022-08-25T17:18:08.361Z,16.98
2022-08-25T17:20:41.102Z,10.93
2022-08-25T17:23:11.913Z,11.10
2022-08-25T17:25:43.560Z,7.10
2022-08-25T17:28:12.773Z,7.68
2022-08-25T17:30:41.997Z,9.18
2022-08-25T17:33:10.069Z,12.27
2022-08-25T17:35:41.221Z,13.27
2022-08-25T17:38:09.522Z,12.30
2022-08-25T17:40:38.120Z,12.40
2022-08-25T17:43:09.145Z,11.20
2022-08-25T17:45:39.141Z,9.57
2022-08-25T17:48:08.581Z,8.20
2022-08-25T17:50:37.157Z,9.57
2022-08-25T17:53:09.286Z,15.40
2022-08-25T17:55:37.877Z,8.95
2022-08-25T17:58:06.085Z,9.63
2022-08-25T18:00:37.906Z,13.38
2022-08-25T18:03:08.774Z,16.45
2022-08-25T18:05:39.001Z,10.98
2022-08-25T18:08:10.535Z,14.75
2022-08-25T18:10:39.437Z,12.65
2022-08-25T18:13:07.597Z,12.07
2022-08-25T18:15:36.569Z,10.90
2022-08-25T18:18:04.898Z,9.98
2022-08-25T18:20:33.996Z,10.65
2022-08-25T18:23:05.018Z,16.27
2022-08-25T18:25:41.813Z,12.48
2022-08-25T18:28:11.533Z,13.43
2022-08-25T18:30:40.517Z,11.50
2022-08-25T18:33:08.859Z,16.48
2022-08-25T18:35:37.937Z,13.70
2022-08-25T18:38:23.635Z,12.27
2022-08-25T18:40:57.602Z,12.20
2022-08-25T18:43:26.362Z,11.65
2022-08-25T18:45:54.996Z,13.30
2022-08-25T18:48:23.819Z,12.13
2022-08-25T18:50:56.590Z,10.27
2022-08-25T18:53:36.899Z,14.60
2022-08-25T18:56:16.842Z,9.95
2022-08-25T18:58:45.552Z,9.65
2022-08-25T19:01:14.586Z,16.30
2022-08-25T19:03:44.488Z,14.07
2022-08-25T19:06:12.509Z,12.65
2022-08-25T19:08:41.903Z,9.50
2022-08-25T19:11:10.769Z,13.95
2022-08-25T19:13:40.677Z,10.27
2022-08-25T19:16:13.818Z,14.48
2022-08-25T19:18:45.750Z,14.25
2022-08-25T19:21:13.850Z,12.07
2022-08-25T19:23:41.861Z,13.27
2022-08-25T19:26:17.039Z,12.88
2022-08-25T19:28:48.666Z,13.50
2022-08-25T19:31:18.324Z,10.57
2022-08-25T19:33:47.929Z,13.45
2022-08-25T19:36:17.454Z,14.65
2022-08-25T19:38:45.536Z,12.02
2022-08-25T19:41:15.024Z,11.50
2022-08-25T19:43:56.379Z,20.10
2022-08-25T19:46:32.329Z,12.52
2022-08-25T19:49:07.137Z,13.82
2022-08-25T19:51:36.194Z,9.45
2022-08-25T19:54:04.305Z,15.65
2022-08-25T19:56:32.524Z,15.85
2022-08-25T19:59:01.180Z,13.80
2022-08-25T20:01:30.812Z,19.80
2022-08-25T20:03:58.889Z,11.70
2022-08-25T20:06:27.781Z,11.35
2022-08-25T20:08:59.052Z,16.73
2022-08-25T20:11:29.625Z,9.23
2022-08-25T20:14:03.024Z,18.35
2022-08-25T20:16:33.114Z,16.58
2022-08-25T20:19:01.289Z,11.85
2022-08-25T20:21:31.948Z,14.68
2022-08-25T20:24:19.088Z,11.15
2022-08-25T20:26:47.228Z,14.18
2022-08-25T20:29:15.349Z,12.68
2022-08-25T20:31:45.384Z,14.18
2022-08-25T20:34:14.360Z,12.55
2022-08-25T20:36:50.138Z,17.90
2022-08-25T20:39:20.184Z,14.15
2022-08-25T20:41:48.635Z,17.20
2022-08-25T20:44:17.492Z,16.15
2022-08-25T20:46:47.069Z,11.65
2022-08-25T20:49:15.641Z,13.13
2022-08-25T20:51:44.059Z,12.38
2022-08-25T20:54:14.141Z,14.27
2022-08-25T20:56:42.828Z,12.25
2022-08-25T20:59:11.652Z,17.58
2022-08-25T21:01:41.180Z,10.90
2022-08-25T21:04:14.427Z,16.33
2022-08-25T21:06:43.267Z,10.80
2022-08-25T21:09:16.158Z,11.88
2022-08-25T21:11:45.191Z,13.93
2022-08-25T21:14:15.407Z,19.33
2022-08-25T21:16:46.446Z,14.95
2022-08-25T21:19:17.977Z,19.42
2022-08-25T21:21:59.551Z,15.48
2022-08-25T21:24:29.251Z,13.60
2022-08-25T21:26:59.360Z,16.13
2022-08-25T21:29:30.007Z,14.93
2022-08-25T21:31:59.613Z,14.70
2022-08-25T21:34:29.744Z,14.80
2022-08-25T21:36:58.364Z,12.38
2022-08-25T21:39:32.095Z,12.77
2022-08-25T21:42:01.174Z,19.10
2022-08-25T21:44:30.199Z,14.40
2022-08-25T21:46:58.370Z,14.70
2022-08-25T21:49:28.220Z,16.05
2022-08-25T21:52:00.940Z,18.17
2022-08-25T21:54:30.610Z,15.90
2022-08-25T21:57:00.411Z,15.27
2022-08-25T21:59:34.886Z,21.17
2022-08-25T22:02:08.092Z,18.42
2022-08-25T22:04:39.510Z,14.50
2022-08-25T22:07:08.015Z,13.63
2022-08-25T22:09:36.588Z,15.10
2022-08-25T22:12:06.106Z,12.70
2022-08-25T22:14:34.678Z,13.93
2022-08-25T22:17:03.097Z,13.00
2022-08-25T22:19:31.375Z,12.52
2022-08-25T22:22:02.970Z,18.05
2022-08-25T22:24:31.230Z,19.35
2022-08-25T22:26:59.290Z,15.00
2022-08-25T22:29:28.786Z,15.68
2022-08-25T22:32:00.975Z,12.65
2022-08-25T22:34:32.815Z,17.38
2022-08-25T22:37:03.634Z,18.13
2022-08-25T22:39:32.514Z,13.45
2022-08-25T22:42:03.259Z,16.55
2022-08-25T22:44:31.598Z,13.45
2022-08-25T22:46:59.694Z,13.38
2022-08-25T22:49:29.335Z,16.60
2022-08-25T22:51:58.292Z,14.70
2022-08-25T22:54:27.826Z,12.85
2022-08-25T22:56:55.914Z,17.60
2022-08-25T22:59:23.986Z,16.38
2022-08-25T23:01:54.661Z,22.15
2022-08-25T23:04:23.219Z,18.67
2022-08-25T23:06:53.214Z,18.83
2022-08-25T23:09:22.219Z,17.05
2022-08-25T23:11:51.688Z,22.55
2022-08-25T23:14:20.061Z,17.40
2022-08-25T23:16:50.508Z,19.67
2022-08-25T23:19:19.858Z,16.42
2022-08-25T23:22:05.551Z,16.63
2022-08-25T23:24:33.913Z,16.30
2022-08-25T23:27:06.054Z,23.38
2022-08-25T23:29:39.307Z,16.95
2022-08-25T23:32:08.937Z,14.00
2022-08-25T23:34:39.438Z,20.40
2022-08-25T23:37:08.566Z,21.25
2022-08-25T23:39:39.256Z,21.35
2022-08-25T23:42:09.461Z,16.30
2022-08-25T23:44:38.222Z,18.08
2022-08-25T23:47:07.058Z,23.73
2022-08-25T23:49:35.151Z,26.98
2022-08-25T23:52:03.658Z,28.30
2022-08-25T23:54:32.277Z,23.48
2022-08-25T23:57:00.781Z,22.65
2022-08-25T23:59:32.283Z,19.23
